Terminal Aerodrome Forecast
Issued by NWS Cleveland, OH

Home | Current Version | Previous Version | Graphics & Text | Print | Product List | Glossary On
Versions: 1 2 3 4 5 6 7 8 9 10 11 12 13 14 15 16 17 18
612
FTUS41 KCLE 042337
TAFYNG
TAF
KYNG 042337Z 0500/0524 22006KT P6SM VCSH SCT025 OVC045
     FM050400 02006KT 3SM -SHRA BR SCT015 OVC025
     FM050700 04006KT 3SM BR SCT008 OVC012
      TEMPO 0508/0512 2SM BR OVC008
     FM051700 02012KT P6SM SCT008 OVC012
     FM052100 02014G22KT P6SM OVC025=

USA.gov is the U.S. government's official web portal to all federal, state and local government web resources and services.